createdAt,value
2017-03-09T00:00:12.156Z,27.3
2017-03-09T00:01:10.574Z,27.3
2017-03-09T00:02:10.569Z,27.3
2017-03-09T00:03:10.682Z,27.3
2017-03-09T00:04:10.611Z,27.3
2017-03-09T00:05:12.306Z,27.3
2017-03-09T00:06:12.219Z,27.3
2017-03-09T00:07:12.332Z,27.3
2017-03-09T00:08:12.359Z,27.3
2017-03-09T00:09:12.352Z,27.3
2017-03-09T00:10:10.969Z,27.3
2017-03-09T00:11:10.883Z,27.3
2017-03-09T00:12:12.526Z,27.3
2017-03-09T00:13:11.111Z,27.3
2017-03-09T00:14:12.677Z,27.3
2017-03-09T00:15:11.159Z,27.3
2017-03-09T00:16:11.131Z,27.3
2017-03-09T00:17:11.354Z,27.3
2017-03-09T00:18:12.842Z,27.3
2017-03-09T00:19:11.319Z,27.3
2017-03-09T00:20:11.488Z,27.3
2017-03-09T00:21:11.475Z,27.3
2017-03-09T00:22:11.594Z,27.3
2017-03-09T00:23:13.123Z,27.3
2017-03-09T00:24:13.266Z,27.3
2017-03-09T00:25:13.359Z,27.3
2017-03-09T00:26:13.255Z,27.3
2017-03-09T00:27:13.290Z,27.3
2017-03-09T00:28:11.752Z,27.3
2017-03-09T00:29:13.393Z,27.3
2017-03-09T00:30:11.976Z,27.3
2017-03-09T00:31:13.463Z,27.3
2017-03-09T00:32:12.050Z,27.3
2017-03-09T00:33:13.681Z,27.3
2017-03-09T00:34:11.969Z,27.3
2017-03-09T00:35:13.639Z,27.3
2017-03-09T00:36:12.080Z,27.3
2017-03-09T00:37:13.818Z,27.3
2017-03-09T00:38:12.131Z,27.3
2017-03-09T00:39:13.783Z,27.3
2017-03-09T00:40:13.976Z,27.3
2017-03-09T00:41:14.073Z,27.3
2017-03-09T00:42:13.957Z,27.3
2017-03-09T00:43:12.547Z,27.3
2017-03-09T00:44:12.491Z,27.3
2017-03-09T00:45:12.554Z,27.3
2017-03-09T00:46:12.591Z,27.3
2017-03-09T00:47:12.675Z,27.3
2017-03-09T00:48:12.888Z,27.3
2017-03-09T00:49:12.929Z,27.3
2017-03-09T00:50:12.933Z,27.3
2017-03-09T00:51:14.509Z,27.3
2017-03-09T00:52:14.565Z,27.3
2017-03-09T00:53:14.629Z,27.3
2017-03-09T00:54:13.237Z,27.3
2017-03-09T00:55:13.149Z,27.3
2017-03-09T00:56:13.328Z,27.3
2017-03-09T00:57:13.418Z,27.3
2017-03-09T00:58:15.003Z,27.3
2017-03-09T00:59:15.039Z,27.3
2017-03-09T01:00:13.555Z,27.3
2017-03-09T01:01:13.419Z,27.3
2017-03-09T01:02:13.458Z,27.3
2017-03-09T01:03:13.604Z,27.3
2017-03-09T01:04:13.740Z,27.3
2017-03-09T01:05:13.642Z,27.3
2017-03-09T01:06:15.390Z,27.3
2017-03-09T01:07:15.379Z,27.3
2017-03-09T01:08:13.985Z,27.3
2017-03-09T01:09:14.041Z,27.3
2017-03-09T01:10:14.094Z,27.3
2017-03-09T01:11:15.560Z,27.3
2017-03-09T01:12:15.753Z,27.3
2017-03-09T01:13:14.253Z,27.3
2017-03-09T01:14:14.170Z,27.3
2017-03-09T01:15:15.849Z,27.3
2017-03-09T01:16:15.893Z,27.3
2017-03-09T01:17:15.951Z,27.3
2017-03-09T01:18:16.033Z,27.3
2017-03-09T01:19:16.188Z,27.3
2017-03-09T01:20:16.138Z,27.3
2017-03-09T01:21:16.189Z,27.3
2017-03-09T01:22:16.271Z,27.3
2017-03-09T01:23:14.806Z,27.3
2017-03-09T01:24:14.859Z,27.3
2017-03-09T01:25:16.381Z,27.3
2017-03-09T01:26:15.038Z,27.3
2017-03-09T01:27:15.067Z,27.3
2017-03-09T01:28:15.132Z,27.3
2017-03-09T01:29:16.665Z,27.3
2017-03-09T01:30:15.200Z,27.3
2017-03-09T01:31:16.771Z,27.3
2017-03-09T01:32:15.135Z,27.3
2017-03-09T01:33:16.913Z,27.3
2017-03-09T01:34:16.835Z,27.3
2017-03-09T01:35:15.407Z,27.3
2017-03-09T01:36:17.057Z,27.3
2017-03-09T01:37:15.599Z,27.3
2017-03-09T01:38:17.219Z,27.3
2017-03-09T01:39:17.342Z,27.3
2017-03-09T01:40:15.655Z,27.3
2017-03-09T01:41:17.308Z,27.3
2017-03-09T01:42:17.378Z,27.3
2017-03-09T01:43:15.785Z,27.3
2017-03-09T01:44:15.967Z,27.3
2017-03-09T01:45:16.066Z,27.3
2017-03-09T01:46:16.062Z,27.3
2017-03-09T01:47:17.585Z,27.3
2017-03-09T01:48:17.781Z,27.3
2017-03-09T01:49:16.089Z,27.3
2017-03-09T01:50:16.151Z,27.3
2017-03-09T01:51:16.343Z,27.3
2017-03-09T01:52:16.403Z,27.3
2017-03-09T01:53:18.189Z,27.3
2017-03-09T01:54:16.587Z,27.3
2017-03-09T01:55:18.191Z,27.3
2017-03-09T01:56:18.096Z,27.3
2017-03-09T01:57:18.198Z,27.3
2017-03-09T01:58:16.566Z,27.3
2017-03-09T01:59:18.397Z,27.3
2017-03-09T02:00:18.249Z,27.3
2017-03-09T02:01:19.676Z,27.3
2017-03-09T02:02:16.781Z,27.3
2017-03-09T02:03:18.374Z,27.3
2017-03-09T02:04:18.557Z,27.3
2017-03-09T02:05:18.777Z,27.3
2017-03-09T02:06:18.521Z,27.3
2017-03-09T02:07:16.990Z,27.3
2017-03-09T02:08:17.195Z,27.3
2017-03-09T02:09:18.845Z,27.3
2017-03-09T02:10:17.132Z,27.3
2017-03-09T02:11:17.370Z,27.3
2017-03-09T02:12:18.871Z,27.3
2017-03-09T02:13:18.888Z,27.3
2017-03-09T02:14:17.353Z,27.3
2017-03-09T02:15:17.465Z,27.3
2017-03-09T02:16:18.223Z,27.3
2017-03-09T02:17:17.844Z,27.3
2017-03-09T02:18:17.663Z,27.3
2017-03-09T02:19:19.207Z,27.3
2017-03-09T02:20:17.697Z,27.3
2017-03-09T02:21:17.812Z,27.3
2017-03-09T02:22:17.874Z,27.3
2017-03-09T02:23:19.648Z,27.3
2017-03-09T02:24:17.983Z,27.3
2017-03-09T02:25:17.977Z,27.3
2017-03-09T02:26:18.114Z,27.3
2017-03-09T02:27:19.605Z,27.3
2017-03-09T02:28:18.149Z,27.3
2017-03-09T02:29:18.464Z,27.3
2017-03-09T02:30:18.304Z,27.3
2017-03-09T02:31:18.310Z,27.3
2017-03-09T02:32:19.816Z,27.2
2017-03-09T02:33:18.440Z,27.3
2017-03-09T02:34:19.946Z,27.3
2017-03-09T02:35:18.616Z,27.3
2017-03-09T02:36:20.195Z,27.3
2017-03-09T02:37:18.708Z,27.3
2017-03-09T02:38:18.715Z,27.3
2017-03-09T02:39:20.212Z,27.3
2017-03-09T02:40:18.786Z,27.3
2017-03-09T02:41:18.866Z,27.3
2017-03-09T02:42:18.795Z,27.3
2017-03-09T02:43:19.025Z,27.3
2017-03-09T02:44:18.860Z,27.3
2017-03-09T02:45:18.922Z,27.3
2017-03-09T02:46:20.678Z,27.3
2017-03-09T02:47:20.894Z,27.3
2017-03-09T02:48:20.702Z,27.3
2017-03-09T02:49:19.358Z,27.3
2017-03-09T02:50:20.975Z,27.3
2017-03-09T02:51:20.898Z,27.3
2017-03-09T02:52:19.497Z,27.3
2017-03-09T02:53:21.091Z,27.3
2017-03-09T02:54:19.441Z,27.3
2017-03-09T02:55:19.503Z,27.3
2017-03-09T02:56:21.324Z,27.3
2017-03-09T02:57:19.753Z,27.3
2017-03-09T02:58:21.433Z,27.3
2017-03-09T02:59:21.416Z,27.3
2017-03-09T03:00:21.373Z,27.3
2017-03-09T03:01:21.540Z,27.3
2017-03-09T03:02:19.940Z,27.3
2017-03-09T03:03:20.021Z,27.3
2017-03-09T03:04:21.979Z,27.3
2017-03-09T03:05:20.224Z,27.3
2017-03-09T03:06:20.309Z,27.3
2017-03-09T03:07:22.150Z,27.3
2017-03-09T03:08:20.582Z,27.3
2017-03-09T03:09:20.509Z,27.3
2017-03-09T03:10:22.403Z,27.3
2017-03-09T03:11:22.253Z,27.3
2017-03-09T03:12:20.713Z,27.3
2017-03-09T03:13:20.870Z,27.3
2017-03-09T03:14:22.409Z,27.3
2017-03-09T03:15:20.922Z,27.3
2017-03-09T03:16:21.025Z,27.3
2017-03-09T03:17:21.014Z,27.3
2017-03-09T03:18:20.896Z,27.3
2017-03-09T03:19:20.987Z,27.3
2017-03-09T03:20:22.797Z,27.3
2017-03-09T03:21:22.838Z,27.3
2017-03-09T03:22:21.456Z,27.3
2017-03-09T03:23:22.769Z,27.3
2017-03-09T03:24:22.845Z,27.3
2017-03-09T03:25:22.852Z,27.3
2017-03-09T03:26:21.401Z,27.3
2017-03-09T03:27:21.445Z,27.3
2017-03-09T03:28:21.618Z,27.3
2017-03-09T03:29:21.336Z,27.3
2017-03-09T03:30:21.369Z,27.2
2017-03-09T03:31:23.014Z,27.2
2017-03-09T03:32:21.476Z,27.2
2017-03-09T03:33:23.222Z,27.3
2017-03-09T03:34:21.823Z,27.3
2017-03-09T03:35:23.259Z,27.3
2017-03-09T03:36:23.206Z,27.3
2017-03-09T03:37:21.779Z,27.3
2017-03-09T03:38:21.670Z,27.3
2017-03-09T03:39:21.856Z,27.3
2017-03-09T03:40:22.047Z,27.3
2017-03-09T03:41:21.931Z,27.3
2017-03-09T03:42:23.447Z,27.3
2017-03-09T03:43:23.637Z,27.3
2017-03-09T03:44:21.977Z,27.3
2017-03-09T03:45:22.083Z,27.3
2017-03-09T03:46:24.039Z,27.3
2017-03-09T03:47:23.903Z,27.3
2017-03-09T03:48:22.294Z,27.2
2017-03-09T03:49:23.999Z,27.3
2017-03-09T03:50:24.032Z,27.3
2017-03-09T03:51:24.145Z,27.3
2017-03-09T03:52:24.408Z,27.3
2017-03-09T03:53:22.795Z,27.3
2017-03-09T03:54:24.404Z,27.3
2017-03-09T03:55:24.455Z,27.3
2017-03-09T03:56:24.413Z,27.3
2017-03-09T03:57:22.915Z,27.3
2017-03-09T03:58:23.268Z,27.3
2017-03-09T03:59:24.768Z,27.3
2017-03-09T04:00:23.239Z,27.3
2017-03-09T04:01:24.741Z,27.3
2017-03-09T04:02:23.168Z,27.3
2017-03-09T04:03:24.858Z,27.3
2017-03-09T04:04:24.994Z,27.3
2017-03-09T04:05:23.298Z,27.3
2017-03-09T04:06:23.502Z,27.3
2017-03-09T04:07:24.999Z,27.3
2017-03-09T04:08:23.406Z,27.3
2017-03-09T04:09:25.197Z,27.2
2017-03-09T04:10:25.391Z,27.2
2017-03-09T04:11:25.261Z,27.3
2017-03-09T04:12:25.181Z,27.3
2017-03-09T04:13:25.257Z,27.3
2017-03-09T04:14:25.350Z,27.3
2017-03-09T04:15:23.819Z,27.3
2017-03-09T04:16:24.233Z,27.3
2017-03-09T04:17:24.096Z,27.3
2017-03-09T04:18:24.174Z,27.3
2017-03-09T04:19:25.819Z,27.3
2017-03-09T04:20:25.839Z,27.3
2017-03-09T04:21:25.816Z,27.3
2017-03-09T04:22:25.964Z,27.3
2017-03-09T04:23:25.886Z,27.3
2017-03-09T04:24:25.884Z,27.3
2017-03-09T04:25:24.365Z,27.3
2017-03-09T04:26:26.147Z,27.3
2017-03-09T04:27:24.600Z,27.3
2017-03-09T04:28:26.406Z,27.3
2017-03-09T04:29:26.225Z,27.2
2017-03-09T04:30:24.803Z,27.3
2017-03-09T04:31:24.710Z,27.2
2017-03-09T04:32:26.390Z,27.2
2017-03-09T04:33:26.530Z,27.3
2017-03-09T04:34:25.219Z,27.3
2017-03-09T04:35:25.014Z,27.3
2017-03-09T04:36:25.051Z,27.3
2017-03-09T04:37:25.304Z,27.3
2017-03-09T04:38:25.275Z,27.3
2017-03-09T04:39:25.238Z,27.3
2017-03-09T04:40:25.410Z,27.3
2017-03-09T04:41:26.953Z,27.3
2017-03-09T04:42:25.507Z,27.3
2017-03-09T04:43:25.495Z,27.3
2017-03-09T04:44:25.483Z,27.3
2017-03-09T04:45:27.085Z,27.3
2017-03-09T04:46:25.869Z,27.3
2017-03-09T04:47:27.355Z,27.4
2017-03-09T04:48:27.355Z,27.4
2017-03-09T04:49:25.715Z,27.4
2017-03-09T04:50:27.438Z,27.4
2017-03-09T04:51:25.851Z,27.4
2017-03-09T04:52:27.645Z,27.4
2017-03-09T04:53:27.618Z,27.3
2017-03-09T04:54:25.909Z,27.3
2017-03-09T04:55:26.062Z,27.4
2017-03-09T04:56:27.611Z,27.3
2017-03-09T04:57:27.619Z,27.4
2017-03-09T04:58:27.931Z,27.4
2017-03-09T04:59:26.254Z,27.4
2017-03-09T05:00:27.742Z,27.4
2017-03-09T05:01:26.199Z,27.4
2017-03-09T05:02:26.216Z,27.4
2017-03-09T05:03:26.249Z,27.4
2017-03-09T05:04:28.048Z,27.4
2017-03-09T05:05:27.910Z,27.4
2017-03-09T05:06:26.292Z,27.4
2017-03-09T05:07:26.468Z,27.4
2017-03-09T05:08:26.573Z,27.4
2017-03-09T05:09:26.558Z,27.4
2017-03-09T05:10:28.352Z,27.4
2017-03-09T05:11:26.711Z,27.4
2017-03-09T05:12:26.807Z,27.4
2017-03-09T05:13:26.887Z,27.4
2017-03-09T05:14:26.844Z,27.4
2017-03-09T05:15:26.987Z,27.3
2017-03-09T05:16:27.129Z,27.3
2017-03-09T05:17:27.195Z,27.4
2017-03-09T05:18:27.170Z,27.3
2017-03-09T05:19:28.722Z,27.4
2017-03-09T05:20:27.332Z,27.4
2017-03-09T05:21:28.818Z,27.4
2017-03-09T05:22:27.665Z,27.4
2017-03-09T05:23:27.249Z,27.4
2017-03-09T05:24:28.899Z,27.3
2017-03-09T05:25:29.059Z,27.4
2017-03-09T05:26:29.191Z,27.4
2017-03-09T05:27:29.070Z,27.4
2017-03-09T05:28:29.519Z,27.4
2017-03-09T05:29:29.224Z,27.4
2017-03-09T05:30:27.717Z,27.3
2017-03-09T05:31:29.239Z,27.3
2017-03-09T05:32:29.431Z,27.3
2017-03-09T05:33:29.494Z,27.3
2017-03-09T05:34:29.716Z,27.3
2017-03-09T05:35:27.970Z,27.3
2017-03-09T05:36:28.011Z,27.3
2017-03-09T05:37:27.930Z,27.3
2017-03-09T05:38:28.057Z,27.3
2017-03-09T05:39:28.106Z,27.3
2017-03-09T05:40:28.302Z,27.3
2017-03-09T05:41:29.696Z,27.3
2017-03-09T05:42:28.277Z,27.3
2017-03-09T05:43:29.814Z,27.3
2017-03-09T05:44:28.287Z,27.3
2017-03-09T05:45:29.645Z,27.3
2017-03-09T05:46:28.410Z,27.4
2017-03-09T05:47:28.591Z,27.4
2017-03-09T05:48:30.138Z,27.3
2017-03-09T05:49:30.219Z,27.4
2017-03-09T05:50:28.722Z,27.4
2017-03-09T05:51:28.788Z,27.3
2017-03-09T05:52:28.711Z,27.3
2017-03-09T05:53:28.669Z,27.4
2017-03-09T05:54:30.502Z,27.4
2017-03-09T05:55:30.599Z,27.4
2017-03-09T05:56:30.445Z,27.4
2017-03-09T05:57:30.761Z,27.4
2017-03-09T05:58:30.587Z,27.4
2017-03-09T05:59:30.614Z,27.4
2017-03-09T06:00:29.110Z,27.4
2017-03-09T06:01:29.233Z,27.4
2017-03-09T06:02:30.720Z,27.4
2017-03-09T06:03:29.671Z,27.4
2017-03-09T06:04:29.415Z,27.4
2017-03-09T06:05:29.289Z,27.4
2017-03-09T06:06:29.414Z,27.4
2017-03-09T06:07:29.377Z,27.4
2017-03-09T06:08:31.082Z,27.4
2017-03-09T06:09:29.596Z,27.4
2017-03-09T06:10:31.197Z,27.4
2017-03-09T06:11:30.219Z,27.4
2017-03-09T06:12:31.329Z,27.4
2017-03-09T06:13:31.299Z,27.4
2017-03-09T06:14:31.436Z,27.4
2017-03-09T06:15:31.681Z,27.4
2017-03-09T06:16:31.443Z,27.4
2017-03-09T06:17:31.143Z,27.4
2017-03-09T06:18:29.926Z,27.4
2017-03-09T06:19:30.095Z,27.4
2017-03-09T06:20:30.097Z,27.4
2017-03-09T06:21:30.351Z,27.4
2017-03-09T06:22:30.043Z,27.4
2017-03-09T06:23:30.035Z,27.4
2017-03-09T06:24:30.067Z,27.4
2017-03-09T06:25:30.288Z,27.4
2017-03-09T06:26:31.801Z,27.4
2017-03-09T06:27:32.181Z,27.4
2017-03-09T06:28:31.872Z,27.4
2017-03-09T06:29:30.303Z,27.5
2017-03-09T06:30:32.712Z,27.5
2017-03-09T06:31:31.999Z,27.5
2017-03-09T06:32:30.447Z,27.5
2017-03-09T06:33:30.813Z,27.5
2017-03-09T06:34:30.521Z,27.5
2017-03-09T06:35:30.544Z,27.5
2017-03-09T06:36:32.206Z,27.5
2017-03-09T06:37:32.978Z,27.5
2017-03-09T06:38:32.369Z,27.5
2017-03-09T06:39:32.760Z,27.5
2017-03-09T06:40:33.173Z,27.5
2017-03-09T06:41:31.526Z,27.5
2017-03-09T06:42:32.614Z,27.5
2017-03-09T06:43:32.667Z,27.5
2017-03-09T06:44:31.137Z,27.5
2017-03-09T06:45:32.958Z,27.5
2017-03-09T06:46:31.114Z,27.5
2017-03-09T06:47:31.236Z,27.2
2017-03-09T06:48:31.234Z,26.1
2017-03-09T06:49:32.928Z,25.2
2017-03-09T06:50:32.864Z,24.6
2017-03-09T06:51:32.904Z,23.5
2017-03-09T06:52:31.366Z,22.5
2017-03-09T06:53:31.398Z,21.8
2017-03-09T06:54:32.970Z,21.6
2017-03-09T06:55:33.207Z,21.5
2017-03-09T06:56:33.815Z,21.4
2017-03-09T06:57:33.133Z,21.4
2017-03-09T06:58:35.384Z,21.3
2017-03-09T06:59:33.343Z,21.2
2017-03-09T07:00:32.305Z,21.3
2017-03-09T07:01:33.411Z,21.4
2017-03-09T07:02:33.476Z,21.4
2017-03-09T07:03:31.989Z,21.5
2017-03-09T07:04:33.486Z,21.5
2017-03-09T07:05:32.125Z,21.6
2017-03-09T07:06:33.735Z,21.6
2017-03-09T07:07:32.045Z,21.6
2017-03-09T07:08:32.157Z,21.6
2017-03-09T07:09:32.313Z,21.7
2017-03-09T07:10:32.336Z,21.6
2017-03-09T07:11:32.337Z,21.4
2017-03-09T07:12:33.987Z,21.4
2017-03-09T07:13:34.171Z,21.2
2017-03-09T07:14:34.098Z,21.3
2017-03-09T07:15:32.579Z,21.5
2017-03-09T07:16:32.752Z,21.8
2017-03-09T07:17:32.738Z,22.1
2017-03-09T07:18:33.472Z,22.4
2017-03-09T07:19:32.780Z,22.6
2017-03-09T07:20:35.155Z,22.9
2017-03-09T07:21:35.171Z,23.1
2017-03-09T07:22:34.686Z,23.4
2017-03-09T07:23:32.998Z,23.6
2017-03-09T07:24:34.312Z,23.8
2017-03-09T07:25:33.097Z,23.9
2017-03-09T07:26:34.797Z,24.1
2017-03-09T07:27:34.795Z,24.3
2017-03-09T07:28:33.278Z,24.4
2017-03-09T07:29:34.640Z,24.5
2017-03-09T07:30:35.006Z,24.6
2017-03-09T07:31:33.552Z,24.7
2017-03-09T07:32:33.629Z,24.9
2017-03-09T07:33:35.137Z,25
2017-03-09T07:34:33.694Z,25
2017-03-09T07:35:35.257Z,25.1
2017-03-09T07:36:35.777Z,25.2
2017-03-09T07:37:33.789Z,25.3
2017-03-09T07:38:35.421Z,25.4
2017-03-09T07:39:36.287Z,25.4
2017-03-09T07:40:35.432Z,25.5
2017-03-09T07:41:35.524Z,25.5
2017-03-09T07:42:35.532Z,25.6
2017-03-09T07:43:34.043Z,25.7
2017-03-09T07:44:34.037Z,25.7
2017-03-09T07:45:35.596Z,25.8
2017-03-09T07:46:34.095Z,25.8
2017-03-09T07:47:35.633Z,25.8
2017-03-09T07:48:34.099Z,25.9
2017-03-09T07:49:35.748Z,25.9
2017-03-09T07:50:36.412Z,26
2017-03-09T07:51:35.859Z,26
2017-03-09T07:52:34.373Z,26
2017-03-09T07:53:37.544Z,26.1
2017-03-09T07:54:36.076Z,26.1
2017-03-09T07:55:34.463Z,26.1
2017-03-09T07:56:36.177Z,26.1
2017-03-09T07:57:36.373Z,26.2
2017-03-09T07:58:35.248Z,26.2
2017-03-09T07:59:36.371Z,26.2
2017-03-09T08:00:34.822Z,26.3
2017-03-09T08:01:36.376Z,26.3
2017-03-09T08:02:36.418Z,26.3
2017-03-09T08:03:36.568Z,26.4
2017-03-09T08:04:35.058Z,26.4
2017-03-09T08:05:36.678Z,26.4
2017-03-09T08:06:36.748Z,26.4
2017-03-09T08:07:35.180Z,26.5
2017-03-09T08:08:36.896Z,26.5
2017-03-09T08:09:35.253Z,26.5
2017-03-09T08:10:35.221Z,26.5
2017-03-09T08:11:36.040Z,26.6
2017-03-09T08:12:35.420Z,26.5
2017-03-09T08:13:35.443Z,26.6
2017-03-09T08:14:35.563Z,26.6
2017-03-09T08:15:35.656Z,26.6
2017-03-09T08:16:35.551Z,26.6
2017-03-09T08:17:36.348Z,26.7
2017-03-09T08:18:37.322Z,26.7
2017-03-09T08:19:35.894Z,26.7
2017-03-09T08:20:37.501Z,26.8
2017-03-09T08:21:35.825Z,26.8
2017-03-09T08:22:37.595Z,26.8
2017-03-09T08:23:35.950Z,26.9
2017-03-09T08:24:35.985Z,26.9
2017-03-09T08:25:37.721Z,26.9
2017-03-09T08:26:37.803Z,26.9
2017-03-09T08:27:36.230Z,26.9
2017-03-09T08:28:37.960Z,26.9
2017-03-09T08:29:38.323Z,27
2017-03-09T08:30:36.435Z,27
2017-03-09T08:31:41.111Z,27
2017-03-09T08:32:39.379Z,27
2017-03-09T08:33:42.643Z,27
2017-03-09T08:34:41.012Z,27.1
2017-03-09T08:35:40.722Z,27.1
2017-03-09T08:36:39.400Z,27.2
2017-03-09T08:39:37.003Z,27.3
2017-03-09T08:40:39.333Z,27.3
2017-03-09T08:41:37.817Z,27.3
2017-03-09T08:42:39.712Z,27.3
2017-03-09T08:43:37.257Z,27.3
2017-03-09T08:44:39.320Z,27.3
2017-03-09T08:45:39.864Z,27.3
2017-03-09T08:46:37.898Z,27.3
2017-03-09T08:47:40.848Z,27.3
2017-03-09T08:48:37.366Z,27.3
2017-03-09T08:49:39.774Z,27.3
2017-03-09T08:50:42.401Z,27.3
2017-03-09T08:51:40.234Z,27.3
2017-03-09T08:52:40.477Z,27.3
2017-03-09T08:53:39.285Z,27.3
2017-03-09T08:54:37.735Z,27.4
2017-03-09T08:55:37.781Z,27.4
2017-03-09T08:56:38.414Z,27.4
2017-03-09T08:57:38.416Z,27.4
2017-03-09T08:58:39.653Z,27.4
2017-03-09T08:59:38.131Z,27.4
2017-03-09T09:00:38.729Z,27.4
2017-03-09T09:01:38.239Z,27.4
2017-03-09T09:02:38.126Z,27.4
2017-03-09T09:03:38.195Z,27.4
2017-03-09T09:04:38.391Z,27.5
2017-03-09T09:05:41.130Z,27.5
2017-03-09T09:06:39.953Z,27.5
2017-03-09T09:07:40.749Z,27.5
2017-03-09T09:08:39.148Z,27.5
2017-03-09T09:09:40.238Z,27.5
2017-03-09T09:10:40.239Z,27.5
2017-03-09T09:11:39.401Z,27.5
2017-03-09T09:12:42.252Z,27.5
2017-03-09T09:13:40.319Z,27.5
2017-03-09T09:14:40.960Z,27.5
2017-03-09T09:15:38.838Z,27.5
2017-03-09T09:16:40.541Z,27.5
2017-03-09T09:17:40.641Z,27.5
2017-03-09T09:18:39.148Z,27.5
2017-03-09T09:19:39.749Z,27.5
2017-03-09T09:20:39.698Z,27.6
2017-03-09T09:21:41.462Z,27.6
2017-03-09T09:22:40.077Z,27.6
2017-03-09T09:23:40.575Z,27.6
2017-03-09T09:24:40.874Z,27.6
2017-03-09T09:25:39.341Z,27.6
2017-03-09T09:26:39.530Z,27.6
2017-03-09T09:27:41.048Z,27.6
2017-03-09T09:28:41.158Z,27.6
2017-03-09T09:29:42.308Z,27.6
2017-03-09T09:30:41.923Z,27.6
2017-03-09T09:31:41.889Z,27.6
2017-03-09T09:32:41.961Z,27.7
2017-03-09T09:33:40.255Z,27.6
2017-03-09T09:34:59.595Z,27.6
2017-03-09T09:35:49.363Z,27.7
2017-03-09T09:36:58.749Z,27.6
2017-03-09T09:37:49.830Z,27.5
2017-03-09T09:38:46.023Z,27.7
2017-03-09T09:39:50.185Z,27.7
2017-03-09T09:41:56.754Z,27.7
2017-03-09T09:43:58.732Z,27.7
2017-03-09T09:44:53.559Z,27.7
2017-03-09T09:45:56.777Z,27.7
2017-03-09T09:46:47.448Z,27.7
2017-03-09T09:47:40.608Z,27.8
2017-03-09T09:48:41.850Z,27.8
2017-03-09T09:49:41.347Z,27.8
2017-03-09T09:50:41.005Z,27.8
2017-03-09T09:51:42.406Z,27.8
2017-03-09T09:52:41.037Z,27.9
2017-03-09T09:53:42.569Z,27.9
2017-03-09T09:54:40.320Z,27.9
2017-03-09T09:56:57.656Z,27.9
2017-03-09T09:57:46.340Z,27.9
2017-03-09T09:58:48.173Z,27.9
2017-03-09T09:59:43.421Z,27.9
2017-03-09T10:00:44.185Z,27.9
2017-03-09T10:02:43.395Z,28
2017-03-09T10:03:40.794Z,28.1
2017-03-09T10:04:41.622Z,28.1
2017-03-09T10:05:42.985Z,28.2
2017-03-09T10:06:40.833Z,28.3
2017-03-09T10:07:41.610Z,28.3
2017-03-09T10:08:50.538Z,28.4
2017-03-09T10:09:49.731Z,28.4
2017-03-09T10:10:42.717Z,28.5
2017-03-09T10:11:44.027Z,28.5
2017-03-09T10:12:41.129Z,28.5
2017-03-09T10:13:42.308Z,28.6
2017-03-09T10:14:42.096Z,28.7
2017-03-09T10:15:43.991Z,28.8
2017-03-09T10:16:41.471Z,28.8
2017-03-09T10:17:45.854Z,28.8
2017-03-09T10:18:43.766Z,28.8
2017-03-09T10:19:43.989Z,28.9
2017-03-09T10:20:45.923Z,29
2017-03-09T10:21:43.847Z,29
2017-03-09T10:22:41.834Z,29
2017-03-09T10:23:43.621Z,29
2017-03-09T10:24:44.033Z,29
2017-03-09T10:25:41.860Z,29
2017-03-09T10:26:44.712Z,29
2017-03-09T10:27:45.022Z,28.9
2017-03-09T10:28:46.252Z,28.9
2017-03-09T10:29:45.816Z,28.9
2017-03-09T10:30:44.227Z,28.9
2017-03-09T10:31:44.426Z,28.9
2017-03-09T10:32:46.863Z,28.8
2017-03-09T10:33:42.154Z,28.8
2017-03-09T10:34:42.297Z,28.8
2017-03-09T10:35:46.419Z,28.8
2017-03-09T10:36:42.999Z,28.8
2017-03-09T10:37:43.987Z,28.8
2017-03-09T10:38:44.629Z,28.8
2017-03-09T10:39:44.897Z,28.8
2017-03-09T10:40:46.609Z,28.8
2017-03-09T10:41:43.469Z,28.5
2017-03-09T10:42:42.773Z,27.9
2017-03-09T10:43:44.150Z,27.3
2017-03-09T10:44:44.925Z,26.7
2017-03-09T10:45:44.719Z,26.3
2017-03-09T10:46:44.547Z,26
2017-03-09T10:47:44.781Z,25.6
2017-03-09T10:48:44.322Z,25.4
2017-03-09T10:49:44.390Z,25.2
2017-03-09T10:50:44.808Z,24.8
2017-03-09T10:51:43.338Z,24.7
2017-03-09T10:52:43.257Z,24.6
2017-03-09T10:53:44.996Z,24.4
2017-03-09T10:54:45.452Z,24.3
2017-03-09T10:55:45.023Z,24.2
2017-03-09T10:56:45.018Z,24.1
2017-03-09T10:57:45.053Z,24
2017-03-09T10:58:43.462Z,24
2017-03-09T10:59:43.487Z,24
2017-03-09T11:00:45.106Z,24.1
2017-03-09T11:01:43.605Z,24.1
2017-03-09T11:02:47.113Z,24.1
2017-03-09T11:03:43.626Z,24.2
2017-03-09T11:04:43.726Z,24.2
2017-03-09T11:05:46.377Z,24.1
2017-03-09T11:06:59.804Z,24
2017-03-09T11:07:44.059Z,23.7
2017-03-09T11:08:44.031Z,23.6
2017-03-09T11:09:45.644Z,23.6
2017-03-09T11:10:44.227Z,23.5
2017-03-09T11:11:45.894Z,23.4
2017-03-09T11:12:46.275Z,23.3
2017-03-09T11:14:05.712Z,23.2
2017-03-09T11:14:44.874Z,23.2
2017-03-09T11:15:47.033Z,23.1
2017-03-09T11:16:45.931Z,23.1
2017-03-09T11:17:48.588Z,23.1
2017-03-09T11:18:46.527Z,23
2017-03-09T11:19:44.467Z,23
2017-03-09T11:20:45.100Z,23.1
2017-03-09T11:21:45.168Z,23.1
2017-03-09T11:22:53.208Z,23.2
2017-03-09T11:24:44.658Z,23.4
2017-03-09T11:25:45.446Z,23.5
2017-03-09T11:26:46.005Z,23.5
2017-03-09T11:27:48.423Z,23.7
2017-03-09T11:28:46.392Z,23.7
2017-03-09T11:29:47.230Z,23.8
2017-03-09T11:30:46.533Z,23.8
2017-03-09T11:31:46.496Z,23.8
2017-03-09T11:32:45.506Z,23.8
2017-03-09T11:33:45.495Z,23.8
2017-03-09T11:34:47.823Z,23.8
2017-03-09T11:35:47.097Z,23.8
2017-03-09T11:36:46.756Z,23.8
2017-03-09T11:37:46.852Z,23.8
2017-03-09T11:38:45.255Z,23.8
2017-03-09T11:39:47.570Z,23.8
2017-03-09T11:40:46.968Z,23.9
2017-03-09T11:41:47.003Z,23.9
2017-03-09T11:42:47.041Z,23.9
2017-03-09T11:43:47.668Z,23.9
2017-03-09T11:44:47.862Z,23.9
2017-03-09T11:45:47.080Z,23.8
2017-03-09T11:46:47.250Z,23.9
2017-03-09T11:47:45.847Z,24
2017-03-09T11:49:03.887Z,24
2017-03-09T11:50:02.282Z,24.1
2017-03-09T11:50:49.276Z,24.1
2017-03-09T11:51:53.257Z,24.2
2017-03-09T11:52:46.577Z,24.2
2017-03-09T11:53:47.914Z,24.1
2017-03-09T11:54:56.749Z,24.1
2017-03-09T11:55:47.743Z,24.1
2017-03-09T11:56:51.355Z,24.1
2017-03-09T11:57:47.979Z,24.2
2017-03-09T11:58:47.709Z,24.2
2017-03-09T11:59:46.587Z,24.2
2017-03-09T12:00:51.348Z,24.3
2017-03-09T12:01:48.346Z,24.3
2017-03-09T12:02:48.768Z,24.3
2017-03-09T12:03:49.257Z,24.2
2017-03-09T12:04:48.999Z,24.2
2017-03-09T12:05:48.782Z,24.3
2017-03-09T12:06:48.358Z,24.4
2017-03-09T12:07:46.866Z,24.5
2017-03-09T12:08:48.507Z,24.7
2017-03-09T12:09:46.839Z,24.8
2017-03-09T12:10:47.000Z,25
2017-03-09T12:11:47.111Z,25.1
2017-03-09T12:12:48.665Z,25.2
2017-03-09T12:13:47.095Z,25.4
2017-03-09T12:14:51.276Z,25.5
2017-03-09T12:15:47.769Z,25.5
2017-03-09T12:16:47.207Z,25.6
2017-03-09T12:17:49.272Z,25.7
2017-03-09T12:18:48.842Z,25.7
2017-03-09T12:19:49.945Z,25.8
2017-03-09T12:20:49.486Z,25.8
2017-03-09T12:21:47.482Z,25.9
2017-03-09T12:22:48.794Z,25.9
2017-03-09T12:23:48.046Z,26
2017-03-09T12:24:48.115Z,26
2017-03-09T12:25:49.553Z,26.1
2017-03-09T12:26:52.340Z,26.1
2017-03-09T12:27:49.578Z,26.1
2017-03-09T12:28:48.295Z,26.2
2017-03-09T12:29:48.948Z,26.2
2017-03-09T12:30:49.942Z,26.2
2017-03-09T12:31:48.432Z,26.2
2017-03-09T12:32:48.059Z,26.2
2017-03-09T12:33:50.421Z,26.2
2017-03-09T12:34:48.709Z,26.3
2017-03-09T12:35:49.656Z,26.3
2017-03-09T12:36:48.222Z,26.3
2017-03-09T12:37:50.508Z,26.4
2017-03-09T12:38:49.806Z,26.4
2017-03-09T12:39:48.912Z,26.4
2017-03-09T12:40:49.013Z,26.5
2017-03-09T12:41:51.012Z,26.5
2017-03-09T12:42:48.414Z,26.5
2017-03-09T12:43:53.002Z,26.5
2017-03-09T12:44:49.851Z,26.5
2017-03-09T12:45:50.510Z,26.5
2017-03-09T12:46:50.251Z,26.6
2017-03-09T12:47:51.978Z,26.6
2017-03-09T12:48:49.348Z,26.6
2017-03-09T12:49:50.463Z,26.6
2017-03-09T12:50:54.258Z,26.7
2017-03-09T12:51:51.930Z,26.7
2017-03-09T12:52:51.851Z,26.7
2017-03-09T12:53:48.988Z,26.8
2017-03-09T12:54:49.089Z,26.8
2017-03-09T12:55:50.800Z,26.8
2017-03-09T12:56:50.916Z,26.9
2017-03-09T12:57:49.365Z,26.9
2017-03-09T12:58:51.955Z,26.9
2017-03-09T12:59:49.451Z,26.9
2017-03-09T13:00:52.477Z,26.9
2017-03-09T13:01:49.478Z,26.9
2017-03-09T13:02:51.736Z,26.9
2017-03-09T13:03:51.988Z,27
2017-03-09T13:04:51.251Z,27
2017-03-09T13:05:49.632Z,27
2017-03-09T13:06:51.359Z,27
2017-03-09T13:07:52.074Z,27
2017-03-09T13:08:50.501Z,27
2017-03-09T13:09:52.977Z,27
2017-03-09T13:10:50.607Z,27
2017-03-09T13:11:53.028Z,27
2017-03-09T13:12:51.609Z,27.1
2017-03-09T13:13:52.367Z,27.1
2017-03-09T13:14:50.110Z,27.1
2017-03-09T13:15:51.888Z,27.1
2017-03-09T13:16:51.723Z,27.2
2017-03-09T13:17:52.270Z,27.2
2017-03-09T13:18:53.322Z,27.2
2017-03-09T13:19:51.810Z,27.2
2017-03-09T13:20:52.094Z,27.2
2017-03-09T13:21:50.669Z,27.3
2017-03-09T13:22:54.394Z,27.3
2017-03-09T13:23:50.546Z,27.3
2017-03-09T13:24:52.806Z,27.3
2017-03-09T13:25:51.244Z,27.4
2017-03-09T13:26:52.782Z,27.4
2017-03-09T13:27:53.339Z,27.4
2017-03-09T13:28:52.326Z,27.4